createdAt,value
2023-01-27T00:00:00.573Z,102482.22
2023-01-27T00:03:04.230Z,102484.94
2023-01-27T00:06:12.033Z,102485.03
2023-01-27T00:09:17.485Z,102473.06
2023-01-27T00:12:41.992Z,102479.97
2023-01-27T00:15:45.706Z,102480.81
2023-01-27T00:18:49.358Z,102480.84
2023-01-27T00:22:11.615Z,102480.13
2023-01-27T00:25:15.451Z,102480.13
2023-01-27T00:28:23.192Z,102477.66
2023-01-27T00:31:43.960Z,102466.38
2023-01-27T00:34:47.936Z,102469.81
2023-01-27T00:37:53.559Z,102469.75
2023-01-27T00:41:15.276Z,102474.84
2023-01-27T00:44:19.048Z,102481.72
2023-01-27T00:47:22.737Z,102482.56
2023-01-27T00:50:26.466Z,102490.41
2023-01-27T00:53:32.466Z,102493.94
2023-01-27T00:56:36.655Z,102492.19
2023-01-27T00:59:40.231Z,102486.16
2023-01-27T01:02:43.955Z,102489.56
2023-01-27T01:05:47.517Z,102490.41
2023-01-27T01:08:52.621Z,102496.53
2023-01-27T01:11:56.297Z,102507.75
2023-01-27T01:14:59.913Z,102491.38
2023-01-27T01:18:03.779Z,102501.78
2023-01-27T01:21:08.404Z,102500.94
2023-01-27T01:24:13.497Z,102501.91
2023-01-27T01:27:17.499Z,102507.97
2023-01-27T01:30:21.621Z,102508.91
2023-01-27T01:33:25.222Z,102502.09
2023-01-27T01:36:28.794Z,102512.47
2023-01-27T01:39:34.219Z,102511.59
2023-01-27T01:42:56.672Z,102512.41
2023-01-27T01:46:01.834Z,102506.38
2023-01-27T01:49:06.179Z,102518.50
2023-01-27T01:52:15.324Z,102517.66
2023-01-27T01:55:20.356Z,102517.66
2023-01-27T01:58:28.165Z,102524.50
2023-01-27T02:01:31.922Z,102528.78
2023-01-27T02:04:44.254Z,102529.53
2023-01-27T02:07:56.884Z,102535.34
2023-01-27T02:11:02.368Z,102543.00
2023-01-27T02:14:06.200Z,102541.25
2023-01-27T02:17:13.758Z,102538.53
2023-01-27T02:20:30.715Z,102545.50
2023-01-27T02:24:06.539Z,102546.38
2023-01-27T02:27:14.284Z,102545.38
2023-01-27T02:30:18.943Z,102544.59
2023-01-27T02:33:22.507Z,102530.75
2023-01-27T02:36:30.112Z,102537.59
2023-01-27T02:39:39.950Z,102543.69
2023-01-27T02:42:45.063Z,102539.34
2023-01-27T02:45:48.853Z,102543.66
2023-01-27T02:48:52.451Z,102544.50
2023-01-27T02:51:56.170Z,102541.84
2023-01-27T02:54:59.766Z,102540.91
2023-01-27T02:58:04.871Z,102542.56
2023-01-27T03:01:10.926Z,102536.50
2023-01-27T03:04:15.913Z,102548.81
2023-01-27T03:07:19.553Z,102555.50
2023-01-27T03:10:23.198Z,102554.63
2023-01-27T03:13:30.007Z,102568.47
2023-01-27T03:16:50.784Z,102566.66
2023-01-27T03:19:54.315Z,102562.28
2023-01-27T03:22:57.984Z,102571.75
2023-01-27T03:26:02.735Z,102578.59
2023-01-27T03:29:25.031Z,102586.38
2023-01-27T03:32:31.916Z,102580.38
2023-01-27T03:35:39.823Z,102582.03
2023-01-27T03:39:00.989Z,102582.75
2023-01-27T03:42:22.141Z,102580.13
2023-01-27T03:45:44.414Z,102593.84
2023-01-27T03:48:52.036Z,102590.34
2023-01-27T03:51:55.656Z,102602.31
2023-01-27T03:54:59.291Z,102604.91
2023-01-27T03:58:14.734Z,102609.00
2023-01-27T04:01:23.070Z,102607.31
2023-01-27T04:04:43.846Z,102605.56
2023-01-27T04:07:47.707Z,102612.38
2023-01-27T04:11:14.253Z,102615.81
2023-01-27T04:14:17.280Z,102612.31
2023-01-27T04:17:22.262Z,102616.59
2023-01-27T04:20:26.012Z,102612.28
2023-01-27T04:23:29.630Z,102611.44
2023-01-27T04:26:34.607Z,102617.47
2023-01-27T04:29:41.602Z,102619.16
2023-01-27T04:32:46.640Z,102624.34
2023-01-27T04:35:51.166Z,102620.78
2023-01-27T04:38:54.929Z,102621.59
2023-01-27T04:41:59.100Z,102617.38
2023-01-27T04:45:02.805Z,102621.47
2023-01-27T04:48:08.547Z,102632.66
2023-01-27T04:51:12.219Z,102623.13
2023-01-27T04:54:15.879Z,102629.13
2023-01-27T04:57:20.311Z,102633.50
2023-01-27T05:00:24.231Z,102633.50
2023-01-27T05:03:29.219Z,102647.28
2023-01-27T05:06:33.248Z,102648.09
2023-01-27T05:09:36.933Z,102644.72
2023-01-27T05:12:40.510Z,102649.97
2023-01-27T05:15:44.142Z,102651.72
2023-01-27T05:18:51.770Z,102655.16
2023-01-27T05:21:55.483Z,102662.13
2023-01-27T05:24:59.074Z,102665.53
2023-01-27T05:28:03.055Z,102660.34
2023-01-27T05:31:10.527Z,102662.13
2023-01-27T05:34:16.825Z,102664.66
2023-01-27T05:37:20.542Z,102672.56
2023-01-27T05:40:24.168Z,102674.31
2023-01-27T05:43:29.075Z,102668.34
2023-01-27T05:46:34.449Z,102679.59
2023-01-27T05:49:39.501Z,102659.81
2023-01-27T05:52:43.167Z,102666.78
2023-01-27T05:55:46.780Z,102672.19
2023-01-27T05:58:51.007Z,102663.59
2023-01-27T06:01:54.731Z,102653.94
2023-01-27T06:04:59.824Z,102649.69
2023-01-27T06:08:03.449Z,102657.53
2023-01-27T06:11:08.575Z,102669.63
2023-01-27T06:14:12.215Z,102673.13
2023-01-27T06:17:16.180Z,102672.19
2023-01-27T06:20:21.347Z,102677.25
2023-01-27T06:23:25.090Z,102689.34
2023-01-27T06:26:28.800Z,102689.28
2023-01-27T06:29:32.484Z,102693.59
2023-01-27T06:32:38.123Z,102707.34
2023-01-27T06:35:43.113Z,102703.06
2023-01-27T06:38:47.342Z,102701.38
2023-01-27T06:41:51.480Z,102708.47
2023-01-27T06:44:56.044Z,102713.59
2023-01-27T06:48:02.403Z,102723.00
2023-01-27T06:51:07.872Z,102721.34
2023-01-27T06:54:12.390Z,102728.31
2023-01-27T06:57:16.405Z,102735.19
2023-01-27T07:00:21.339Z,102733.47
2023-01-27T07:03:25.369Z,102738.53
2023-01-27T07:06:30.563Z,102741.16
2023-01-27T07:09:50.577Z,102750.75
2023-01-27T07:13:05.410Z,102762.78
2023-01-27T07:16:09.423Z,102767.03
2023-01-27T07:19:13.551Z,102778.22
2023-01-27T07:22:18.805Z,102769.53
2023-01-27T07:25:22.544Z,102772.09
2023-01-27T07:28:26.581Z,102778.06
2023-01-27T07:31:30.301Z,102775.44
2023-01-27T07:34:33.966Z,102776.91
2023-01-27T07:37:40.038Z,102789.78
2023-01-27T07:40:44.879Z,102802.78
2023-01-27T07:43:51.410Z,102798.41
2023-01-27T07:46:56.292Z,102803.69
2023-01-27T07:49:59.954Z,102811.47
2023-01-27T07:53:07.097Z,102810.72
2023-01-27T07:56:12.048Z,102811.50
2023-01-27T07:59:16.045Z,102815.09
2023-01-27T08:02:19.877Z,102811.72
2023-01-27T08:05:25.387Z,102825.50
2023-01-27T08:08:30.455Z,102820.44
2023-01-27T08:11:34.985Z,102827.44
2023-01-27T08:14:38.701Z,102828.34
2023-01-27T08:17:42.422Z,102838.75
2023-01-27T08:20:46.399Z,102831.88
2023-01-27T08:23:51.585Z,102830.19
2023-01-27T08:26:55.418Z,102831.34
2023-01-27T08:29:59.085Z,102827.03
2023-01-27T08:33:02.717Z,102829.66
2023-01-27T08:36:10.786Z,102819.31
2023-01-27T08:39:16.254Z,102830.53
2023-01-27T08:42:20.140Z,102824.38
2023-01-27T08:45:24.399Z,102831.38
2023-01-27T08:48:29.380Z,102826.22
2023-01-27T08:51:33.014Z,102831.59
2023-01-27T08:54:38.002Z,102836.84
2023-01-27T08:57:41.603Z,102842.31
2023-01-27T09:00:45.388Z,102847.53
2023-01-27T09:03:49.548Z,102845.78
2023-01-27T09:06:54.226Z,102849.44
2023-01-27T09:10:15.919Z,102858.94
2023-01-27T09:13:22.308Z,102863.38
2023-01-27T09:16:26.887Z,102862.47
2023-01-27T09:19:30.613Z,102871.09
2023-01-27T09:22:34.377Z,102872.91
2023-01-27T09:25:39.952Z,102875.41
2023-01-27T09:28:43.789Z,102871.41
2023-01-27T09:31:47.571Z,102879.94
2023-01-27T09:34:51.405Z,102876.44
2023-01-27T09:37:58.984Z,102865.50
2023-01-27T09:41:27.944Z,102879.91
2023-01-27T09:45:20.205Z,102863.28
2023-01-27T09:48:54.003Z,102873.25
2023-01-27T09:52:15.780Z,102868.16
2023-01-27T09:55:29.888Z,102870.63
2023-01-27T09:58:58.159Z,102865.34
2023-01-27T10:02:14.850Z,102859.19
2023-01-27T10:06:05.233Z,102860.19
2023-01-27T10:09:39.919Z,102866.31
2023-01-27T10:13:17.736Z,102873.97
2023-01-27T10:16:42.461Z,102864.69
2023-01-27T10:20:01.639Z,102866.97
2023-01-27T10:23:17.550Z,102862.78
2023-01-27T10:26:32.088Z,102870.78
2023-01-27T10:29:43.375Z,102859.63
2023-01-27T10:33:01.804Z,102847.69
2023-01-27T10:36:17.480Z,102861.53
2023-01-27T10:39:40.079Z,102858.50
2023-01-27T10:42:53.537Z,102853.31
2023-01-27T10:46:11.704Z,102862.13
2023-01-27T10:49:25.228Z,102859.69
2023-01-27T10:52:37.191Z,102861.81
2023-01-27T10:55:51.140Z,102854.69
2023-01-27T10:59:04.950Z,102857.38
2023-01-27T11:02:24.479Z,102864.31
2023-01-27T11:05:38.217Z,102861.22
2023-01-27T11:08:48.754Z,102855.28
2023-01-27T11:11:55.309Z,102859.94
2023-01-27T11:15:20.777Z,102849.13
2023-01-27T11:18:29.435Z,102852.84
2023-01-27T11:21:35.487Z,102863.97
2023-01-27T11:24:47.371Z,102864.72
2023-01-27T11:28:08.026Z,102866.22
2023-01-27T11:31:26.565Z,102865.91
2023-01-27T11:34:40.524Z,102863.09
2023-01-27T11:37:50.201Z,102867.56
2023-01-27T11:40:55.372Z,102870.03
2023-01-27T11:43:59.496Z,102866.53
2023-01-27T11:47:08.124Z,102857.25
2023-01-27T11:50:17.723Z,102853.25
2023-01-27T11:53:32.409Z,102837.13
2023-01-27T11:56:39.089Z,102842.88
2023-01-27T11:59:44.712Z,102838.44
2023-01-27T12:03:00.576Z,102849.47
2023-01-27T12:06:15.868Z,102839.97
2023-01-27T12:09:36.894Z,102843.19
2023-01-27T12:12:40.639Z,102841.44
2023-01-27T12:15:53.381Z,102838.09
2023-01-27T12:19:04.289Z,102838.97
2023-01-27T12:22:18.434Z,102840.75
2023-01-27T12:25:31.183Z,102827.97
2023-01-27T12:28:41.145Z,102826.97
2023-01-27T12:31:50.497Z,102838.28
2023-01-27T12:34:57.108Z,102825.41
2023-01-27T12:38:08.442Z,102827.84
2023-01-27T12:41:23.478Z,102822.91
2023-01-27T12:44:28.968Z,102821.28
2023-01-27T12:47:32.573Z,102812.50
2023-01-27T12:50:39.225Z,102817.75
2023-01-27T12:53:44.547Z,102823.66
2023-01-27T12:56:50.476Z,102815.69
2023-01-27T12:59:58.708Z,102822.47
2023-01-27T13:03:12.717Z,102826.81
2023-01-27T13:06:20.001Z,102818.16
2023-01-27T13:09:30.603Z,102827.63
2023-01-27T13:12:50.614Z,102819.69
2023-01-27T13:16:02.083Z,102831.59
2023-01-27T13:19:19.250Z,102836.78
2023-01-27T13:22:26.635Z,102832.38
2023-01-27T13:25:40.090Z,102834.13
2023-01-27T13:28:53.651Z,102840.81
2023-01-27T13:32:05.789Z,102841.78
2023-01-27T13:35:23.890Z,102842.75
2023-01-27T13:38:41.543Z,102848.59
2023-01-27T13:41:53.050Z,102851.88
2023-01-27T13:45:06.544Z,102845.09
2023-01-27T13:48:20.757Z,102852.66
2023-01-27T13:51:29.273Z,102849.25
2023-01-27T13:54:33.905Z,102857.94
2023-01-27T13:58:01.859Z,102852.56
2023-01-27T14:01:30.361Z,102854.13
2023-01-27T14:05:02.198Z,102846.56
2023-01-27T14:08:33.066Z,102859.28
2023-01-27T14:11:44.132Z,102858.63
2023-01-27T14:15:01.350Z,102859.97
2023-01-27T14:18:16.247Z,102862.47
2023-01-27T14:25:06.002Z,102848.56
2023-01-27T14:28:23.636Z,102855.56
2023-01-27T14:31:44.546Z,102854.75
2023-01-27T14:35:30.920Z,102842.34
2023-01-27T14:38:44.808Z,102850.44
2023-01-27T14:41:58.232Z,102846.69
2023-01-27T14:45:14.323Z,102847.25
2023-01-27T14:48:43.366Z,102855.97
2023-01-27T14:51:54.180Z,102845.66
2023-01-27T14:55:20.537Z,102857.63
2023-01-27T14:58:55.055Z,102858.19
2023-01-27T15:02:16.276Z,102859.94
2023-01-27T15:05:31.627Z,102864.22
2023-01-27T15:08:47.099Z,102858.91
2023-01-27T15:12:17.782Z,102860.69
2023-01-27T15:16:09.440Z,102860.47
2023-01-27T15:19:45.498Z,102867.56
2023-01-27T15:23:08.598Z,102863.25
2023-01-27T15:26:22.350Z,102860.59
2023-01-27T15:29:30.786Z,102862.88
2023-01-27T15:32:38.482Z,102867.91
2023-01-27T15:35:42.420Z,102865.25
2023-01-27T15:39:21.782Z,102869.50
2023-01-27T15:42:52.495Z,102869.41
2023-01-27T15:45:58.325Z,102877.16
2023-01-27T15:49:05.219Z,102884.13
2023-01-27T15:52:29.639Z,102881.66
2023-01-27T15:55:36.412Z,102882.44
2023-01-27T15:58:46.918Z,102881.53
2023-01-27T16:02:02.762Z,102882.25
2023-01-27T16:05:18.546Z,102889.91
2023-01-27T16:08:22.801Z,102899.41
2023-01-27T16:11:42.181Z,102899.47
2023-01-27T16:14:48.040Z,102895.81
2023-01-27T16:18:41.632Z,102889.78
2023-01-27T16:21:52.125Z,102894.81
2023-01-27T16:25:02.793Z,102908.56
2023-01-27T16:28:15.937Z,102896.53
2023-01-27T16:31:28.235Z,102906.56
2023-01-27T16:34:41.058Z,102917.00
2023-01-27T16:38:08.190Z,102915.28
2023-01-27T16:41:21.015Z,102916.19
2023-01-27T16:44:32.128Z,102923.84
2023-01-27T16:47:47.329Z,102924.91
2023-01-27T16:50:54.178Z,102924.78
2023-01-27T16:54:01.218Z,102935.84
2023-01-27T16:57:06.970Z,102942.88
2023-01-27T17:00:22.065Z,102938.63
2023-01-27T17:03:37.379Z,102936.78
2023-01-27T17:06:44.357Z,102935.06
2023-01-27T17:09:54.191Z,102940.31
2023-01-27T17:12:57.858Z,102945.22
2023-01-27T17:16:07.416Z,102945.22
2023-01-27T17:19:20.916Z,102947.00
2023-01-27T17:22:39.834Z,102949.41
2023-01-27T17:25:43.730Z,102946.00
2023-01-27T17:28:49.287Z,102952.84
2023-01-27T17:31:53.214Z,102952.94
2023-01-27T17:35:02.915Z,102960.50
2023-01-27T17:38:14.391Z,102956.84
2023-01-27T17:41:33.719Z,102962.06
2023-01-27T17:44:37.402Z,102968.13
2023-01-27T17:47:46.969Z,102967.13
2023-01-27T17:50:52.572Z,102970.50
2023-01-27T17:53:57.831Z,102973.19
2023-01-27T17:57:10.171Z,102972.25
2023-01-27T18:00:27.213Z,102971.31
2023-01-27T18:03:37.020Z,102969.47
2023-01-27T18:06:44.121Z,102969.31
2023-01-27T18:09:54.791Z,102977.91
2023-01-27T18:13:13.809Z,102970.03
2023-01-27T18:16:20.382Z,102976.03
2023-01-27T18:19:25.804Z,102977.69
2023-01-27T18:22:31.101Z,102975.09
2023-01-27T18:25:35.464Z,102973.16
2023-01-27T18:28:43.361Z,102972.56
2023-01-27T18:31:52.158Z,102975.84
2023-01-27T18:34:59.880Z,102981.78
2023-01-27T18:38:22.408Z,102982.44
2023-01-27T18:41:29.298Z,102975.50
2023-01-27T18:44:36.069Z,102973.81
2023-01-27T18:47:39.976Z,102983.97
2023-01-27T18:50:52.093Z,102980.28
2023-01-27T18:54:00.262Z,102985.41
2023-01-27T18:57:03.914Z,102988.03
2023-01-27T19:00:12.589Z,102989.78
2023-01-27T19:03:20.839Z,102994.88
2023-01-27T19:06:26.330Z,102995.78
2023-01-27T19:09:31.371Z,103006.25
2023-01-27T19:12:35.010Z,103005.38
2023-01-27T19:15:46.701Z,103001.84
2023-01-27T19:18:50.422Z,103000.06
2023-01-27T19:21:54.494Z,103007.88
2023-01-27T19:24:59.913Z,103008.84
2023-01-27T19:28:06.575Z,103008.84
2023-01-27T19:31:10.880Z,103016.59
2023-01-27T19:34:15.543Z,103014.00
2023-01-27T19:37:20.501Z,103016.41
2023-01-27T19:40:29.300Z,103020.81
2023-01-27T19:43:33.091Z,103022.94
2023-01-27T19:46:37.829Z,103020.28
2023-01-27T19:49:42.566Z,103023.63
2023-01-27T19:52:46.548Z,103024.38
2023-01-27T19:55:54.327Z,103019.03
2023-01-27T19:58:57.963Z,103038.81
2023-01-27T20:02:02.375Z,103030.19
2023-01-27T20:05:07.648Z,103036.44
2023-01-27T20:08:17.049Z,103035.25
2023-01-27T20:11:38.092Z,103033.34
2023-01-27T20:14:41.698Z,103041.09
2023-01-27T20:17:45.327Z,103035.03
2023-01-27T20:20:48.894Z,103027.09
2023-01-27T20:23:53.939Z,103022.00
2023-01-27T20:26:59.323Z,103009.25
2023-01-27T20:30:02.955Z,103008.94
2023-01-27T20:33:06.769Z,103008.19
2023-01-27T20:36:14.516Z,103002.91
2023-01-27T20:39:18.291Z,103006.13
2023-01-27T20:42:23.306Z,103001.78
2023-01-27T20:45:32.446Z,103005.81
2023-01-27T20:48:36.588Z,103000.75
2023-01-27T20:51:40.337Z,103002.53
2023-01-27T20:54:43.914Z,102998.28
2023-01-27T20:57:49.768Z,102993.91
2023-01-27T21:00:53.559Z,102986.34
2023-01-27T21:03:57.288Z,102986.38
2023-01-27T21:07:01.069Z,102987.03
2023-01-27T21:10:04.913Z,102989.59
2023-01-27T21:13:10.012Z,102986.72
2023-01-27T21:16:14.347Z,102970.91
2023-01-27T21:19:20.877Z,102972.78
2023-01-27T21:22:24.509Z,102979.72
2023-01-27T21:25:29.565Z,102979.78
2023-01-27T21:28:35.508Z,102984.00
2023-01-27T21:31:41.766Z,102988.97
2023-01-27T21:34:45.435Z,102983.94
2023-01-27T21:37:49.117Z,102981.34
2023-01-27T21:40:55.659Z,102992.66
2023-01-27T21:44:17.891Z,102995.06
2023-01-27T21:47:23.452Z,102990.75
2023-01-27T21:50:27.247Z,102979.72
2023-01-27T21:53:33.443Z,102985.78
2023-01-27T21:56:37.132Z,102983.94
2023-01-27T21:59:42.120Z,102983.50
2023-01-27T22:02:46.507Z,102990.47
2023-01-27T22:05:50.200Z,102987.03
2023-01-27T22:08:54.053Z,102985.38
2023-01-27T22:11:57.666Z,102988.22
2023-01-27T22:15:02.756Z,102988.16
2023-01-27T22:18:07.264Z,102984.91
2023-01-27T22:21:11.254Z,102979.59
2023-01-27T22:24:15.199Z,102984.00
2023-01-27T22:27:18.819Z,102984.06
2023-01-27T22:30:24.160Z,102984.06
2023-01-27T22:33:27.936Z,102985.00
2023-01-27T22:36:31.464Z,102990.31
2023-01-27T22:39:35.257Z,102991.56
2023-01-27T22:42:40.258Z,102988.41
2023-01-27T22:45:45.505Z,102990.06
2023-01-27T22:48:49.583Z,102981.28
2023-01-27T22:51:53.269Z,102986.22
2023-01-27T22:54:56.921Z,102994.97
2023-01-27T22:58:00.592Z,102994.59
2023-01-27T23:01:08.924Z,102989.84
2023-01-27T23:04:14.241Z,102998.50
2023-01-27T23:07:17.909Z,102998.44
2023-01-27T23:10:21.572Z,102994.84
2023-01-27T23:13:25.173Z,102995.53
2023-01-27T23:16:31.352Z,102996.34
2023-01-27T23:19:35.426Z,102995.53
2023-01-27T23:22:39.095Z,102986.97
2023-01-27T23:25:45.587Z,102991.88
2023-01-27T23:28:49.218Z,102985.38
2023-01-27T23:31:54.868Z,102984.38
2023-01-27T23:34:58.637Z,102981.69
2023-01-27T23:38:02.777Z,102981.91
2023-01-27T23:41:12.614Z,102980.09
2023-01-27T23:44:16.534Z,102978.88
2023-01-27T23:47:21.634Z,102975.03
2023-01-27T23:50:25.596Z,102974.88
2023-01-27T23:53:29.803Z,102981.81
2023-01-27T23:56:33.488Z,102974.06
2023-01-27T23:59:37.124Z,102979.22
